createdAt,value
2018-12-18T00:00:30.837Z,99426.32
2018-12-18T00:02:38.122Z,99422.25
2018-12-18T00:04:44.884Z,99415.87
2018-12-18T00:06:51.648Z,99422.55
2018-12-18T00:08:58.658Z,99416.09
2018-12-18T00:11:08.023Z,99410.31
2018-12-18T00:13:15.121Z,99416.05
2018-12-18T00:15:22.038Z,99418.89
2018-12-18T00:17:28.965Z,99422.25
2018-12-18T00:19:36.051Z,99419.55
2018-12-18T00:21:42.842Z,99421.91
2018-12-18T00:23:50.239Z,99419.33
2018-12-18T00:25:57.074Z,99423.13
2018-12-18T00:28:03.957Z,99426.23
2018-12-18T00:30:12.136Z,99417.27
2018-12-18T00:32:19.794Z,99419.15
2018-12-18T00:34:28.451Z,99428.75
2018-12-18T00:36:35.462Z,99420.09
2018-12-18T00:38:42.269Z,99425.61
2018-12-18T00:40:51.680Z,99425.73
2018-12-18T00:43:00.035Z,99414.28
2018-12-18T00:45:07.361Z,99415.92
2018-12-18T00:47:14.408Z,99416.94
2018-12-18T00:49:21.073Z,99422.46
2018-12-18T00:51:27.733Z,99423.72
2018-12-18T00:53:34.370Z,99421.31
2018-12-18T00:55:40.990Z,99430.38
2018-12-18T00:57:47.735Z,99429.98
2018-12-18T00:59:54.530Z,99409.24
2018-12-18T01:02:01.433Z,99415.60
2018-12-18T01:04:08.618Z,99422.06
2018-12-18T01:06:15.733Z,99421.63
2018-12-18T01:08:22.451Z,99418.73
2018-12-18T01:10:29.119Z,99419.13
2018-12-18T01:12:35.906Z,99412.77
2018-12-18T01:17:10.243Z,99424.02
2018-12-18T01:19:21.585Z,99419.64
2018-12-18T01:21:29.730Z,99422.23
2018-12-18T01:25:51.519Z,99421.52
2018-12-18T01:28:02.885Z,99421.18
2018-12-18T01:32:28.041Z,99430.44
2018-12-18T01:34:35.835Z,99429.80
2018-12-18T01:36:43.023Z,99427.64
2018-12-18T01:38:49.898Z,99433.77
2018-12-18T01:40:56.795Z,99430.76
2018-12-18T01:43:04.101Z,99440.05
2018-12-18T01:45:10.758Z,99437.84
2018-12-18T01:47:17.839Z,99443.78
2018-12-18T01:49:24.645Z,99436.16
2018-12-18T01:51:31.582Z,99448.55
2018-12-18T01:53:38.498Z,99446.78
2018-12-18T01:55:46.098Z,99451.14
2018-12-18T01:57:52.794Z,99442.12
2018-12-18T01:59:59.753Z,99448.67
2018-12-18T02:02:06.590Z,99444.17
2018-12-18T02:04:13.318Z,99447.92
2018-12-18T02:06:20.321Z,99447.92
2018-12-18T02:08:27.011Z,99451.50
2018-12-18T02:10:33.930Z,99448.80
2018-12-18T02:12:40.616Z,99452.50
2018-12-18T02:14:47.279Z,99447.55
2018-12-18T02:16:54.342Z,99447.31
2018-12-18T02:19:01.754Z,99445.41
2018-12-18T02:21:09.197Z,99441.31
2018-12-18T02:23:16.097Z,99438.78
2018-12-18T02:25:22.871Z,99441.94
2018-12-18T02:27:29.583Z,99431.46
2018-12-18T02:29:36.351Z,99437.39
2018-12-18T02:31:43.092Z,99429.00
2018-12-18T02:33:50.288Z,99427.81
2018-12-18T02:35:57.345Z,99420.98
2018-12-18T02:38:04.235Z,99423.48
2018-12-18T02:40:10.875Z,99417.55
2018-12-18T02:42:17.976Z,99414.53
2018-12-18T02:44:25.466Z,99415.09
2018-12-18T02:46:32.202Z,99422.37
2018-12-18T02:48:39.172Z,99419.02
2018-12-18T02:50:46.068Z,99425.70
2018-12-18T02:52:53.010Z,99423.00
2018-12-18T02:55:00.124Z,99424.10
2018-12-18T02:57:06.928Z,99419.48
2018-12-18T02:59:13.541Z,99420.05
2018-12-18T03:01:20.399Z,99414.52
2018-12-18T03:03:27.154Z,99408.31
2018-12-18T03:05:33.823Z,99413.77
2018-12-18T03:07:40.742Z,99401.66
2018-12-18T03:09:47.483Z,99409.09
2018-12-18T03:11:54.498Z,99414.84
2018-12-18T03:14:01.533Z,99412.03
2018-12-18T03:16:08.730Z,99410.31
2018-12-18T03:18:15.645Z,99412.23
2018-12-18T03:20:22.683Z,99409.11
2018-12-18T03:22:29.883Z,99401.22
2018-12-18T03:24:36.702Z,99398.20
2018-12-18T03:26:43.452Z,99401.74
2018-12-18T03:28:50.491Z,99404.03
2018-12-18T03:30:57.574Z,99405.06
2018-12-18T03:33:04.799Z,99407.24
2018-12-18T03:35:12.049Z,99415.41
2018-12-18T03:37:19.146Z,99417.08
2018-12-18T03:39:26.206Z,99403.70
2018-12-18T03:41:33.342Z,99402.20
2018-12-18T03:43:40.429Z,99400.19
2018-12-18T03:45:47.174Z,99399.87
2018-12-18T03:47:54.333Z,99403.03
2018-12-18T03:50:00.934Z,99400.59
2018-12-18T03:52:07.569Z,99402.78
2018-12-18T03:54:14.553Z,99406.34
2018-12-18T03:56:21.469Z,99406.70
2018-12-18T03:58:28.728Z,99405.52
2018-12-18T04:00:35.615Z,99408.67
2018-12-18T04:02:44.888Z,99405.06
2018-12-18T04:04:51.650Z,99401.39
2018-12-18T04:06:58.892Z,99402.40
2018-12-18T04:09:07.039Z,99397.89
2018-12-18T04:11:13.854Z,99398.37
2018-12-18T04:13:20.646Z,99396.77
2018-12-18T04:15:27.592Z,99391.73
2018-12-18T04:17:34.263Z,99395.69
2018-12-18T04:19:40.880Z,99389.78
2018-12-18T04:21:47.542Z,99387.48
2018-12-18T04:23:54.474Z,99395.34
2018-12-18T04:26:01.280Z,99398.16
2018-12-18T04:28:08.004Z,99386.31
2018-12-18T04:30:14.649Z,99394.97
2018-12-18T04:32:21.392Z,99389.36
2018-12-18T04:34:28.166Z,99385.16
2018-12-18T04:36:35.455Z,99378.66
2018-12-18T04:38:42.730Z,99380.94
2018-12-18T04:40:50.230Z,99377.92
2018-12-18T04:42:56.931Z,99368.43
2018-12-18T04:45:04.130Z,99377.17
2018-12-18T04:47:10.812Z,99363.03
2018-12-18T04:49:18.320Z,99369.14
2018-12-18T04:51:25.157Z,99366.78
2018-12-18T04:53:32.001Z,99361.82
2018-12-18T04:55:39.338Z,99366.60
2018-12-18T04:57:46.165Z,99363.06
2018-12-18T04:59:52.853Z,99365.74
2018-12-18T05:02:00.380Z,99351.77
2018-12-18T05:04:07.223Z,99353.19
2018-12-18T05:06:13.990Z,99360.13
2018-12-18T05:08:20.717Z,99361.27
2018-12-18T05:10:27.500Z,99363.27
2018-12-18T05:12:34.211Z,99362.95
2018-12-18T05:14:41.044Z,99360.63
2018-12-18T05:16:48.038Z,99349.72
2018-12-18T05:18:54.863Z,99352.52
2018-12-18T05:21:01.601Z,99349.61
2018-12-18T05:23:08.631Z,99360.77
2018-12-18T05:25:15.376Z,99358.59
2018-12-18T05:27:22.113Z,99356.58
2018-12-18T05:29:28.878Z,99354.75
2018-12-18T05:31:35.764Z,99357.00
2018-12-18T05:33:42.665Z,99356.62
2018-12-18T05:35:49.573Z,99359.37
2018-12-18T05:37:56.482Z,99362.63
2018-12-18T05:40:03.272Z,99364.29
2018-12-18T05:42:10.348Z,99361.69
2018-12-18T05:44:17.218Z,99361.89
2018-12-18T05:46:24.137Z,99365.19
2018-12-18T05:48:31.234Z,99364.98
2018-12-18T05:50:38.466Z,99361.93
2018-12-18T05:52:45.246Z,99366.36
2018-12-18T05:54:52.110Z,99364.10
2018-12-18T05:56:58.890Z,99368.47
2018-12-18T05:59:05.733Z,99368.98
2018-12-18T06:01:12.836Z,99367.28
2018-12-18T06:03:19.498Z,99367.75
2018-12-18T06:05:26.334Z,99368.80
2018-12-18T06:07:32.783Z,99371.81
2018-12-18T06:09:39.567Z,99367.73
2018-12-18T06:11:46.397Z,99371.12
2018-12-18T06:13:53.374Z,99368.89
2018-12-18T06:16:00.305Z,99362.14
2018-12-18T06:18:07.110Z,99367.38
2018-12-18T06:20:14.130Z,99363.87
2018-12-18T06:22:21.113Z,99365.25
2018-12-18T06:24:28.071Z,99363.06
2018-12-18T06:26:35.000Z,99364.08
2018-12-18T06:28:42.290Z,99374.48
2018-12-18T06:30:49.203Z,99366.55
2018-12-18T06:32:56.131Z,99370.77
2018-12-18T06:35:02.862Z,99369.59
2018-12-18T06:37:09.810Z,99374.38
2018-12-18T06:39:16.846Z,99378.34
2018-12-18T06:41:23.676Z,99378.30
2018-12-18T06:43:30.373Z,99375.23
2018-12-18T06:45:36.874Z,99375.23
2018-12-18T06:47:43.733Z,99380.42
2018-12-18T06:49:50.607Z,99382.60
2018-12-18T06:51:57.354Z,99370.64
2018-12-18T06:54:04.566Z,99377.27
2018-12-18T06:56:11.256Z,99381.81
2018-12-18T06:58:18.078Z,99380.26
2018-12-18T07:00:25.172Z,99383.42
2018-12-18T07:02:31.714Z,99382.16
2018-12-18T07:04:38.955Z,99388.34
2018-12-18T07:06:45.698Z,99379.78
2018-12-18T07:08:52.783Z,99389.94
2018-12-18T07:10:59.463Z,99383.86
2018-12-18T07:13:06.218Z,99382.46
2018-12-18T07:15:13.101Z,99373.81
2018-12-18T07:17:19.802Z,99377.63
2018-12-18T07:19:26.588Z,99373.72
2018-12-18T07:21:33.295Z,99378.84
2018-12-18T07:23:40.019Z,99375.97
2018-12-18T07:25:47.143Z,99376.17
2018-12-18T07:27:54.013Z,99380.03
2018-12-18T07:30:00.941Z,99382.63
2018-12-18T07:32:07.838Z,99386.75
2018-12-18T07:34:14.731Z,99394.91
2018-12-18T07:36:21.744Z,99390.22
2018-12-18T07:38:28.786Z,99393.50
2018-12-18T07:40:35.486Z,99391.77
2018-12-18T07:42:42.323Z,99400.64
2018-12-18T07:44:49.771Z,99399.72
2018-12-18T07:46:56.663Z,99394.25
2018-12-18T07:49:03.406Z,99406.11
2018-12-18T07:51:10.354Z,99402.04
2018-12-18T07:53:16.938Z,99403.91
2018-12-18T07:55:23.734Z,99412.27
2018-12-18T07:57:30.777Z,99410.41
2018-12-18T07:59:37.492Z,99410.96
2018-12-18T08:01:44.380Z,99416.56
2018-12-18T08:03:51.406Z,99424.92
2018-12-18T08:05:58.389Z,99430.55
2018-12-18T08:08:05.194Z,99430.22
2018-12-18T08:10:12.807Z,99416.25
2018-12-18T08:12:22.325Z,99417.05
2018-12-18T08:14:29.377Z,99425.28
2018-12-18T08:16:36.024Z,99423.16
2018-12-18T08:18:42.922Z,99429.21
2018-12-18T08:20:50.434Z,99422.19
2018-12-18T08:22:57.270Z,99424.63
2018-12-18T08:25:04.314Z,99423.20
2018-12-18T08:27:11.745Z,99422.79
2018-12-18T08:29:18.629Z,99421.72
2018-12-18T08:31:25.528Z,99419.48
2018-12-18T08:33:32.942Z,99414.86
2018-12-18T08:35:39.433Z,99416.58
2018-12-18T08:37:46.107Z,99416.91
2018-12-18T08:39:52.918Z,99414.16
2018-12-18T08:41:59.766Z,99416.38
2018-12-18T08:44:06.521Z,99412.39
2018-12-18T08:46:13.311Z,99409.00
2018-12-18T08:48:20.223Z,99412.57
2018-12-18T08:50:26.898Z,99408.60
2018-12-18T08:52:33.590Z,99406.83
2018-12-18T08:54:40.568Z,99408.74
2018-12-18T08:56:47.535Z,99408.00
2018-12-18T08:58:54.374Z,99420.16
2018-12-18T09:01:01.207Z,99419.48
2018-12-18T09:03:07.936Z,99416.09
2018-12-18T09:05:14.653Z,99407.33
2018-12-18T09:07:21.765Z,99404.70
2018-12-18T09:09:28.498Z,99404.23
2018-12-18T09:11:35.578Z,99400.67
2018-12-18T09:13:42.408Z,99393.16
2018-12-18T09:15:54.024Z,99391.72
2018-12-18T09:18:01.080Z,99393.09
2018-12-18T09:20:07.964Z,99387.66
2018-12-18T09:22:14.970Z,99395.50
2018-12-18T09:24:22.450Z,99395.77
2018-12-18T09:26:29.283Z,99391.32
2018-12-18T09:28:36.073Z,99393.33
2018-12-18T09:30:43.131Z,99395.50
2018-12-18T09:32:49.930Z,99395.84
2018-12-18T09:34:56.681Z,99386.22
2018-12-18T09:37:03.402Z,99398.16
2018-12-18T09:39:15.599Z,99387.77
2018-12-18T09:41:30.760Z,99393.27
2018-12-18T09:43:42.326Z,99382.00
2018-12-18T09:45:48.982Z,99374.78
2018-12-18T09:47:55.782Z,99378.20
2018-12-18T09:50:02.729Z,99380.07
2018-12-18T09:52:10.053Z,99377.00
2018-12-18T09:54:16.865Z,99384.16
2018-12-18T09:56:24.070Z,99384.94
2018-12-18T09:58:30.782Z,99380.00
2018-12-18T10:00:38.031Z,99385.92
2018-12-18T10:02:45.250Z,99378.80
2018-12-18T10:04:52.153Z,99381.08
2018-12-18T10:06:59.138Z,99384.70
2018-12-18T10:09:09.678Z,99385.16
2018-12-18T10:11:16.510Z,99385.36
2018-12-18T10:13:23.199Z,99385.93
2018-12-18T10:15:30.629Z,99384.53
2018-12-18T10:17:37.394Z,99385.79
2018-12-18T10:19:44.273Z,99388.45
2018-12-18T10:21:50.828Z,99380.44
2018-12-18T10:23:57.754Z,99386.70
2018-12-18T10:26:04.525Z,99386.41
2018-12-18T10:28:11.394Z,99389.73
2018-12-18T10:30:18.321Z,99388.41
2018-12-18T10:32:25.016Z,99389.42
2018-12-18T10:34:31.619Z,99398.20
2018-12-18T10:36:38.769Z,99394.31
2018-12-18T10:38:45.414Z,99402.84
2018-12-18T10:40:53.820Z,99393.48
2018-12-18T10:43:00.609Z,99401.56
2018-12-18T10:45:13.703Z,99394.00
2018-12-18T10:47:17.666Z,99391.42
2018-12-18T10:49:24.461Z,99356.31
2018-12-18T10:51:31.316Z,99396.43
2018-12-18T10:53:38.312Z,99400.13
2018-12-18T10:55:45.377Z,99402.67
2018-12-18T10:57:52.157Z,99406.47
2018-12-18T10:59:58.861Z,99398.19
2018-12-18T11:02:06.307Z,99391.94
2018-12-18T11:04:13.258Z,99408.83
2018-12-18T11:06:20.236Z,99400.70
2018-12-18T11:08:27.042Z,99409.38
2018-12-18T11:10:33.654Z,99404.87
2018-12-18T11:12:44.072Z,99404.78
2018-12-18T11:14:51.665Z,99398.25
2018-12-18T11:16:58.519Z,99397.17
2018-12-18T11:19:05.266Z,99406.83
2018-12-18T11:21:12.125Z,99402.97
2018-12-18T11:23:19.749Z,99397.39
2018-12-18T11:25:27.070Z,99395.25
2018-12-18T11:27:33.877Z,99396.95
2018-12-18T11:29:40.676Z,99390.33
2018-12-18T11:31:46.946Z,99391.81
2018-12-18T11:33:54.246Z,99391.84
2018-12-18T11:36:01.196Z,99388.69
2018-12-18T11:38:08.385Z,99387.97
2018-12-18T11:40:15.231Z,99388.22
2018-12-18T11:42:22.091Z,99384.47
2018-12-18T11:44:29.127Z,99386.27
2018-12-18T11:46:35.849Z,99379.36
2018-12-18T11:48:42.751Z,99373.81
2018-12-18T11:50:49.458Z,99377.58
2018-12-18T11:52:55.999Z,99376.90
2018-12-18T11:55:02.754Z,99375.84
2018-12-18T11:57:09.606Z,99372.98
2018-12-18T11:59:16.393Z,99373.66
2018-12-18T12:01:23.346Z,99380.09
2018-12-18T12:03:30.236Z,99378.19
2018-12-18T12:05:38.149Z,99373.00
2018-12-18T12:07:45.162Z,99368.73
2018-12-18T12:09:51.913Z,99376.66
2018-12-18T12:11:58.826Z,99376.63
2018-12-18T12:14:05.652Z,99376.14
2018-12-18T12:16:12.362Z,99379.30
2018-12-18T12:18:19.093Z,99382.23
2018-12-18T12:20:26.846Z,99383.59
2018-12-18T12:22:33.673Z,99393.89
2018-12-18T12:24:40.338Z,99387.07
2018-12-18T12:26:49.902Z,99389.73
2018-12-18T12:28:56.677Z,99393.23
2018-12-18T12:31:03.395Z,99394.44
2018-12-18T12:33:10.221Z,99394.86
2018-12-18T12:35:16.985Z,99391.11
2018-12-18T12:37:23.664Z,99390.11
2018-12-18T12:39:30.939Z,99389.01
2018-12-18T12:41:37.989Z,99383.98
2018-12-18T12:43:45.783Z,99394.52
2018-12-18T12:45:53.060Z,99383.20
2018-12-18T12:48:03.896Z,99383.84
2018-12-18T12:50:11.054Z,99383.69
2018-12-18T12:52:17.697Z,99377.25
2018-12-18T12:54:24.778Z,99382.98
2018-12-18T12:56:31.605Z,99378.52
2018-12-18T12:58:38.336Z,99377.05
2018-12-18T13:00:45.159Z,99368.11
2018-12-18T13:02:52.569Z,99368.91
2018-12-18T13:04:59.489Z,99367.13
2018-12-18T13:07:06.384Z,99366.02
2018-12-18T13:09:13.262Z,99365.69
2018-12-18T13:11:19.994Z,99369.22
2018-12-18T13:13:26.642Z,99362.53
2018-12-18T13:15:33.663Z,99373.14
2018-12-18T13:17:40.549Z,99363.61
2018-12-18T13:19:47.483Z,99368.94
2018-12-18T13:21:54.478Z,99364.12
2018-12-18T13:24:01.311Z,99370.59
2018-12-18T13:26:08.235Z,99369.45
2018-12-18T13:28:15.135Z,99367.35
2018-12-18T13:30:22.052Z,99367.83
2018-12-18T13:32:29.429Z,99366.06
2018-12-18T13:34:36.331Z,99363.97
2018-12-18T13:36:43.328Z,99364.80
2018-12-18T13:38:50.237Z,99356.44
2018-12-18T13:40:57.255Z,99363.75
2018-12-18T13:43:04.291Z,99355.56
2018-12-18T13:45:11.410Z,99368.28
2018-12-18T13:47:18.477Z,99374.98
2018-12-18T13:49:25.258Z,99372.61
2018-12-18T13:51:32.405Z,99374.31
2018-12-18T13:53:39.503Z,99377.27
2018-12-18T13:55:46.231Z,99382.22
2018-12-18T13:57:52.979Z,99379.73
2018-12-18T13:59:59.922Z,99376.42
2018-12-18T14:02:06.787Z,99377.83
2018-12-18T14:04:13.791Z,99381.05
2018-12-18T14:06:20.698Z,99383.37
2018-12-18T14:08:27.530Z,99381.42
2018-12-18T14:10:34.194Z,99386.34
2018-12-18T14:12:41.284Z,99377.48
2018-12-18T14:14:48.097Z,99387.88
2018-12-18T14:16:54.876Z,99392.27
2018-12-18T14:19:01.734Z,99383.60
2018-12-18T14:21:08.503Z,99378.50
2018-12-18T14:23:15.102Z,99375.87
2018-12-18T14:25:21.945Z,99382.89
2018-12-18T14:27:28.698Z,99387.94
2018-12-18T14:29:36.646Z,99389.98
2018-12-18T14:31:43.626Z,99388.91
2018-12-18T14:33:50.603Z,99395.73
2018-12-18T14:35:59.193Z,99399.74
2018-12-18T14:38:05.829Z,99401.93
2018-12-18T14:40:13.027Z,99400.16
2018-12-18T14:42:19.703Z,99401.63
2018-12-18T14:44:26.598Z,99404.70
2018-12-18T14:46:33.325Z,99406.45
2018-12-18T14:48:40.240Z,99402.38
2018-12-18T14:50:46.837Z,99399.88
2018-12-18T14:52:53.691Z,99402.16
2018-12-18T14:55:00.838Z,99412.84
2018-12-18T14:57:07.634Z,99408.36
2018-12-18T14:59:14.592Z,99411.52
2018-12-18T15:01:21.237Z,99416.22
2018-12-18T15:03:28.094Z,99416.97
2018-12-18T15:05:34.826Z,99417.84
2018-12-18T15:07:41.676Z,99412.54
2018-12-18T15:09:48.591Z,99409.52
2018-12-18T15:11:55.524Z,99409.69
2018-12-18T15:14:02.498Z,99406.41
2018-12-18T15:16:09.230Z,99413.11
2018-12-18T15:18:16.495Z,99411.70
2018-12-18T15:20:23.381Z,99418.03
2018-12-18T15:22:30.185Z,99416.55
2018-12-18T15:24:37.490Z,99421.23
2018-12-18T15:26:44.157Z,99424.81
2018-12-18T15:28:50.866Z,99415.77
2018-12-18T15:30:58.018Z,99419.73
2018-12-18T15:33:05.414Z,99425.02
2018-12-18T15:35:12.093Z,99425.73
2018-12-18T15:37:19.234Z,99435.23
2018-12-18T15:39:26.473Z,99429.20
2018-12-18T15:41:33.318Z,99428.14
2018-12-18T15:43:40.223Z,99428.97
2018-12-18T15:45:46.981Z,99420.52
2018-12-18T15:47:53.700Z,99426.06
2018-12-18T15:50:00.630Z,99421.56
2018-12-18T15:52:07.490Z,99418.24
2018-12-18T15:54:14.462Z,99417.44
2018-12-18T15:56:21.453Z,99420.88
2018-12-18T15:58:28.170Z,99408.47
2018-12-18T16:00:34.910Z,99410.54
2018-12-18T16:02:41.781Z,99416.75
2018-12-18T16:04:48.678Z,99410.66
2018-12-18T16:06:55.582Z,99415.59
2018-12-18T16:09:02.314Z,99408.80
2018-12-18T16:11:09.262Z,99403.34
2018-12-18T16:13:16.027Z,99395.75
2018-12-18T16:15:23.227Z,99389.91
2018-12-18T16:17:30.086Z,99374.45
2018-12-18T16:19:37.271Z,99377.03
2018-12-18T16:21:44.210Z,99377.55
2018-12-18T16:23:51.277Z,99373.08
2018-12-18T16:25:58.253Z,99376.20
2018-12-18T16:28:04.947Z,99365.64
2018-12-18T16:30:11.793Z,99354.11
2018-12-18T16:32:18.529Z,99354.02
2018-12-18T16:34:25.561Z,99341.52
2018-12-18T16:36:32.494Z,99338.33
2018-12-18T16:38:39.463Z,99333.01
2018-12-18T16:40:46.835Z,99334.70
2018-12-18T16:42:53.697Z,99335.05
2018-12-18T16:45:01.019Z,99321.86
2018-12-18T16:47:08.358Z,99321.28
2018-12-18T16:49:15.357Z,99321.47
2018-12-18T16:51:22.219Z,99319.52
2018-12-18T16:53:29.314Z,99312.59
2018-12-18T16:55:36.921Z,99306.72
2018-12-18T16:57:43.748Z,99305.45
2018-12-18T16:59:50.617Z,99300.37
2018-12-18T17:01:57.558Z,99296.81
2018-12-18T17:04:04.474Z,99285.17
2018-12-18T17:06:11.323Z,99285.15
2018-12-18T17:08:18.247Z,99275.80
2018-12-18T17:10:24.957Z,99271.25
2018-12-18T17:12:31.755Z,99272.33
2018-12-18T17:14:38.440Z,99273.55
2018-12-18T17:16:45.167Z,99267.63
2018-12-18T17:18:52.292Z,99261.77
2018-12-18T17:20:59.257Z,99252.92
2018-12-18T17:23:06.153Z,99235.42
2018-12-18T17:25:12.835Z,99231.37
2018-12-18T17:27:19.904Z,99214.91
2018-12-18T17:29:26.729Z,99215.81
2018-12-18T17:31:33.901Z,99204.05
2018-12-18T17:33:40.800Z,99194.85
2018-12-18T17:35:47.685Z,99185.42
2018-12-18T17:37:54.652Z,99184.52
2018-12-18T17:40:01.382Z,99175.45
2018-12-18T17:42:08.297Z,99183.59
2018-12-18T17:44:14.994Z,99165.65
2018-12-18T17:46:21.753Z,99163.77
2018-12-18T17:48:28.406Z,99144.22
2018-12-18T17:50:35.206Z,99149.71
2018-12-18T17:52:42.256Z,99141.46
2018-12-18T17:54:49.885Z,99141.58
2018-12-18T17:56:56.825Z,99144.53
2018-12-18T17:59:03.938Z,99133.55
2018-12-18T18:01:10.756Z,99130.16
2018-12-18T18:03:17.951Z,99130.30
2018-12-18T18:05:24.616Z,99127.05
2018-12-18T18:07:31.288Z,99119.69
2018-12-18T18:09:37.874Z,99112.45
2018-12-18T18:11:44.874Z,99112.24
2018-12-18T18:13:51.714Z,99119.48
2018-12-18T18:15:58.449Z,99121.91
2018-12-18T18:18:05.386Z,99120.66
2018-12-18T18:20:11.890Z,99114.64
2018-12-18T18:22:18.782Z,99115.38
2018-12-18T18:24:25.648Z,99118.49
2018-12-18T18:26:32.570Z,99121.11
2018-12-18T18:28:39.487Z,99117.89
2018-12-18T18:30:46.065Z,99106.70
2018-12-18T18:32:53.157Z,99113.72
2018-12-18T18:35:00.129Z,99102.59
2018-12-18T18:37:07.008Z,99109.61
2018-12-18T18:39:15.267Z,99105.94
2018-12-18T18:41:22.515Z,99103.03
2018-12-18T18:43:29.860Z,99100.84
2018-12-18T18:45:36.499Z,99095.81
2018-12-18T18:47:42.994Z,99094.09
2018-12-18T18:49:50.605Z,99083.75
2018-12-18T18:51:57.349Z,99069.42
2018-12-18T18:54:04.131Z,99058.20
2018-12-18T18:56:11.194Z,99051.77
2018-12-18T18:58:18.177Z,99037.67
2018-12-18T19:00:26.145Z,99038.96
2018-12-18T19:02:34.260Z,99036.48
2018-12-18T19:04:41.213Z,99033.99
2018-12-18T19:06:48.166Z,99028.47
2018-12-18T19:08:55.487Z,99026.45
2018-12-18T19:11:02.426Z,99019.13
2018-12-18T19:13:09.141Z,99025.39
2018-12-18T19:15:15.801Z,99028.10
2018-12-18T19:17:23.082Z,99011.29
2018-12-18T19:19:29.986Z,99004.66
2018-12-18T19:21:36.742Z,98999.54
2018-12-18T19:23:43.631Z,98999.01
2018-12-18T19:25:50.661Z,98992.82
2018-12-18T19:27:57.607Z,98988.81
2018-12-18T19:30:04.432Z,98993.35
2018-12-18T19:32:11.553Z,98993.64
2018-12-18T19:34:18.860Z,98999.08
2018-12-18T19:36:26.010Z,98998.94
2018-12-18T19:38:33.171Z,98999.01
2018-12-18T19:40:39.791Z,99001.85
2018-12-18T19:42:47.399Z,98992.75
2018-12-18T19:44:54.475Z,98992.75
2018-12-18T19:47:01.499Z,98999.77
2018-12-18T19:49:08.239Z,98994.63
2018-12-18T19:51:15.078Z,98998.77
2018-12-18T19:53:21.800Z,99003.02
2018-12-18T19:55:28.838Z,98994.41
2018-12-18T19:57:36.167Z,98985.50
2018-12-18T19:59:43.556Z,98995.89
2018-12-18T20:01:50.696Z,98996.52
2018-12-18T20:03:57.415Z,98998.54
2018-12-18T20:06:04.454Z,98999.46
2018-12-18T20:08:11.414Z,98997.58
2018-12-18T20:10:18.283Z,98990.85
2018-12-18T20:12:25.624Z,98984.89
2018-12-18T20:14:32.642Z,98974.05
2018-12-18T20:16:39.542Z,98976.58
2018-12-18T20:18:46.534Z,98965.84
2018-12-18T20:20:53.470Z,98962.32
2018-12-18T20:23:00.458Z,98964.18
2018-12-18T20:25:07.679Z,98968.84
2018-12-18T20:27:14.966Z,98970.23
2018-12-18T20:29:21.886Z,98974.61
2018-12-18T20:31:28.911Z,98972.57
2018-12-18T20:33:35.836Z,98971.30
2018-12-18T20:35:42.709Z,98969.35
2018-12-18T20:37:49.922Z,98963.95
2018-12-18T20:39:56.721Z,98966.16
2018-12-18T20:42:07.873Z,98962.77
2018-12-18T20:44:14.902Z,98974.33
2018-12-18T20:46:21.609Z,98971.31
2018-12-18T20:48:28.641Z,98973.11
2018-12-18T20:50:35.453Z,98968.62
2018-12-18T20:52:42.462Z,98968.09
2018-12-18T20:54:50.090Z,98967.80
2018-12-18T20:56:56.926Z,98967.08
2018-12-18T20:59:04.353Z,98961.81
2018-12-18T21:01:11.341Z,98960.40
2018-12-18T21:03:18.246Z,98961.53
2018-12-18T21:05:25.017Z,98962.30
2018-12-18T21:07:31.776Z,98961.84
2018-12-18T21:09:38.767Z,98962.01
2018-12-18T21:11:45.622Z,98955.72
2018-12-18T21:13:52.509Z,98950.46
2018-12-18T21:15:59.410Z,98956.05
2018-12-18T21:18:06.383Z,98959.20
2018-12-18T21:20:13.056Z,98967.87
2018-12-18T21:22:19.773Z,98968.99
2018-12-18T21:24:26.805Z,98968.62
2018-12-18T21:26:34.019Z,98967.80
2018-12-18T21:28:41.045Z,98969.98
2018-12-18T21:30:47.923Z,98965.16
2018-12-18T21:32:54.918Z,98964.72
2018-12-18T21:35:01.501Z,98962.07
2018-12-18T21:37:08.499Z,98976.00
2018-12-18T21:39:15.607Z,98964.09
2018-12-18T21:41:22.430Z,98956.13
2018-12-18T21:43:29.423Z,98962.59
2018-12-18T21:45:36.226Z,98959.05
2018-12-18T21:47:42.886Z,98966.42
2018-12-18T21:49:50.281Z,98968.52
2018-12-18T21:51:57.192Z,98946.20
2018-12-18T21:54:04.275Z,98946.94
2018-12-18T21:56:11.038Z,98942.92
2018-12-18T21:58:17.832Z,98946.70
2018-12-18T22:00:24.822Z,98948.06
2018-12-18T22:02:31.456Z,98944.30
2018-12-18T22:04:37.928Z,98942.20
2018-12-18T22:06:44.592Z,98937.20
2018-12-18T22:08:51.422Z,98937.76
2018-12-18T22:10:58.496Z,98939.05
2018-12-18T22:13:05.534Z,98938.23
2018-12-18T22:15:12.641Z,98930.47
2018-12-18T22:17:19.309Z,98939.44
2018-12-18T22:19:25.984Z,98951.89
2018-12-18T22:21:32.922Z,98943.55
2018-12-18T22:23:39.550Z,98949.64
2018-12-18T22:25:46.207Z,98946.33
2018-12-18T22:27:53.546Z,98945.94
2018-12-18T22:30:00.929Z,98938.12
2018-12-18T22:32:08.097Z,98933.73
2018-12-18T22:34:14.844Z,98932.70
2018-12-18T22:38:33.617Z,98947.09
2018-12-18T22:40:40.660Z,98954.77
2018-12-18T22:42:47.552Z,98954.00
2018-12-18T22:44:54.269Z,98955.59
2018-12-18T22:47:01.094Z,98939.48
2018-12-18T22:49:07.774Z,98930.15
2018-12-18T22:51:14.653Z,98927.80
2018-12-18T22:53:23.094Z,98923.63
2018-12-18T22:55:31.349Z,98926.21
2018-12-18T22:57:38.846Z,98919.50
2018-12-18T22:59:45.596Z,98921.08
2018-12-18T23:01:52.561Z,98912.11
2018-12-18T23:04:00.856Z,98905.63
2018-12-18T23:06:09.923Z,98901.98
2018-12-18T23:08:18.419Z,98895.21
2018-12-18T23:10:25.337Z,98909.84
2018-12-18T23:12:33.014Z,98904.50
2018-12-18T23:14:40.553Z,98894.91
2018-12-18T23:16:47.595Z,98888.07
2018-12-18T23:18:54.830Z,98894.78
2018-12-18T23:21:03.286Z,98897.47
2018-12-18T23:23:10.403Z,98888.68
2018-12-18T23:25:18.391Z,98878.27
2018-12-18T23:27:25.083Z,98874.03
2018-12-18T23:29:31.849Z,98873.37
2018-12-18T23:31:38.674Z,98871.21
2018-12-18T23:33:45.722Z,98867.22
2018-12-18T23:35:52.670Z,98877.42
2018-12-18T23:38:00.058Z,98868.49
2018-12-18T23:40:06.982Z,98861.06
2018-12-18T23:42:13.533Z,98855.58
2018-12-18T23:44:19.846Z,98851.65
2018-12-18T23:46:26.866Z,98848.95
2018-12-18T23:48:39.530Z,98856.39
2018-12-18T23:50:42.869Z,98846.09
2018-12-18T23:52:49.841Z,98860.81
2018-12-18T23:54:56.481Z,98845.25
2018-12-18T23:57:03.330Z,98849.51
2018-12-18T23:59:10.367Z,98853.41
